Terminal Aerodrome Forecast
Issued by NWS

Current Version | Previous Version | Text Only | Print | Product List | Glossary Off
Versions: 1 2 3 4 5 6 7 8 9 10 11 12 13 14 15 16 17 18 19

000
FTUS41 KILN 030800 AAA
TAFLUK
TAF AMD
KLUK 030809Z 0308/0406 00000KT 4SM BR BKN250
      TEMPO 0308/0312 2SM BR
     FM031300 20008KT P6SM SCT080 SCT250
     FM040000 VRB02KT P6SM SKC=

USA.gov is the U.S. government's official web portal to all federal, state and local government web resources and services.